If you wish to contribute or participate in the discussions about articles you are invited to join SKYbrary as a registered user

 Actions

Luqa

From SKYbrary Wiki

LMML
Airport
ICAO: LMML
Summary
Name Luqa
Region Europe
Territory Malta MT.gif
Location Luqa
Serving
Coordinates 35° 51' 25.41" N, 14° 28' 40.20" E
Runways
Designator Length Width Surface ROPS
5/23 2377 m7,798.556 ft
45 m147.638 ft
ASP yes/yes
13/31 3544 m11,627.297 ft
60 m196.85 ft
ASP yes/yes


METAR
Observation LMML 031345Z 31013KT 9999 FEW018 12/11 Q1006 RERA NOSIG
Station Luqa
Date/Time 03 December 2020 13:45:00
Wind direction 310°
Wind speed 13 kts
Lowest cloud amount few clouds
Temperature 12°C
Dew point 11°C
Humidity 93%
QNH 1006 hPa
Weather condition n/a

Luqa Airport

ICAO: LMML IATA: MLA

Description

International airport serving the island of Malta.

Climatology

Dry-summer subtropical ”Mediterranean" climate (Köppen climate classification Csa) - characterized by hot, dry summers and mild winters. During the summer, subtropical high pressure cells dominate, making rainfall unlikely except for the occasional thunderstorm. In the winter, periodic storms bring rain.

Maps

Terrain

Loading map...

Airport Layout

Loading map...


Accidents & Serious Incidents at or in vicinity of LMML

None on SKYbrary